Time;durP1;ratioP1;P1;durP2;ratioP2;P2;SDS_P1;SDS_P2;PMS_P1;PMS_P2;Temp;Humidity;BMP_temperature;BMP_pressure;BME280_temperature;BME280_humidity;BME280_pressure;Samples;Min_cycle;Max_cycle;Signal;HPM_P1;HPM_P2
2024/02/17 00:00:05;;;;;;;;;;;;;;;19.14;52.20;101404.97;2068785;28;6021;-63
2024/02/17 00:01:07;;;;;;;;;;;;;;;19.15;52.19;101405.72;2071246;28;2126;-64
2024/02/17 00:02:09;;;;;;;;;;;;;;;19.15;52.20;101402.84;2068442;28;2173;-63
2024/02/17 00:03:12;;;;;;;;;;;;;;;19.15;52.18;101406.47;2068211;28;2160;-63
2024/02/17 00:04:14;;;;;;;;;;;;;;;19.14;52.25;101410.72;2070444;28;2161;-63
2024/02/17 00:05:15;;;;;;;;;;;;;;;19.14;52.22;101409.97;2069447;28;1613;-63
2024/02/17 00:06:17;;;;;;;;;;;;;;;19.13;52.22;101414.97;2068498;28;1863;-63
2024/02/17 00:07:18;;;;;;;;;;;;;;;19.13;52.17;101412.09;2069048;28;2146;-63
2024/02/17 00:08:20;;;;;;;;;;;;;;;19.14;52.18;101413.59;2070990;28;2288;-63
2024/02/17 00:09:21;;;;;;;;;;;;;;;19.14;52.22;101421.44;2066986;28;2053;-63
2024/02/17 00:10:23;;;;;;;;;;;;;;;19.13;52.19;101409.22;2070547;28;2094;-62
2024/02/17 00:11:25;;;;;;;;;;;;;;;19.13;52.26;101420.72;2070220;28;1987;-63
2024/02/17 00:12:27;;;;;;;;;;;;;;;19.13;52.20;101420.72;2070323;28;2035;-63
2024/02/17 00:13:28;;;;;;;;;;;;;;;19.13;52.19;101426.44;2067290;28;2225;-62
2024/02/17 00:14:29;;;;;;;;;;;;;;;19.12;52.21;101429.94;2067295;28;2049;-63
2024/02/17 00:15:31;;;;;;;;;;;;;;;19.12;52.21;101430.69;2072537;28;2145;-63
2024/02/17 00:16:32;;;;;;;;;;;;;;;19.12;52.10;101433.56;2071541;28;2146;-63
2024/02/17 00:17:34;;;;;;;;;;;;;;;19.12;52.12;101430.69;2069111;28;2170;-63
2024/02/17 00:18:35;;;;;;;;;;;;;;;19.12;51.98;101430.69;2068686;28;2259;-62
2024/02/17 00:19:37;;;;;;;;;;;;;;;19.12;52.21;101442.16;2070760;28;2119;-62
2024/02/17 00:20:39;;;;;;;;;;;;;;;19.11;52.11;101443.56;2066119;28;2198;-63
2024/02/17 00:21:40;;;;;;;;;;;;;;;19.13;52.05;101442.94;2068888;28;2094;-63
2024/02/17 00:22:42;;;;;;;;;;;;;;;19.12;52.14;101435.69;2070375;28;2137;-63
2024/02/17 00:23:44;;;;;;;;;;;;;;;19.11;52.16;101437.81;2067142;28;2232;-63
2024/02/17 00:24:45;;;;;;;;;;;;;;;19.11;52.12;101443.56;2067012;28;2174;-63
2024/02/17 00:25:48;;;;;;;;;;;;;;;19.12;52.11;101442.16;2070112;28;2001;-63
2024/02/17 00:26:50;;;;;;;;;;;;;;;19.11;52.10;101446.44;2071303;28;2123;-63
2024/02/17 00:27:51;;;;;;;;;;;;;;;19.11;52.07;101440.69;2071420;28;1522;-63
2024/02/17 00:28:52;;;;;;;;;;;;;;;19.12;52.07;101447.16;2070360;28;2120;-62
2024/02/17 00:29:54;;;;;;;;;;;;;;;19.11;52.11;101440.69;2071034;28;2160;-63
2024/02/17 00:30:55;;;;;;;;;;;;;;;19.11;52.08;101445.69;2067794;28;7061;-62
2024/02/17 00:31:56;;;;;;;;;;;;;;;19.11;52.10;101445.69;2069850;28;2084;-63
2024/02/17 00:32:58;;;;;;;;;;;;;;;19.11;52.12;101452.16;2070152;28;2110;-63
2024/02/17 00:34:00;;;;;;;;;;;;;;;19.11;52.03;101448.56;2071589;28;2034;-63
2024/02/17 00:35:02;;;;;;;;;;;;;;;19.10;52.14;101433.44;2069950;28;1672;-63
2024/02/17 00:36:04;;;;;;;;;;;;;;;19.10;52.10;101430.56;2071958;28;1910;-63
2024/02/17 00:37:05;;;;;;;;;;;;;;;19.10;52.18;101427.69;2072865;28;1890;-63
2024/02/17 00:38:07;;;;;;;;;;;;;;;19.10;52.01;101426.94;2069364;28;1705;-63
2024/02/17 00:39:09;;;;;;;;;;;;;;;19.09;52.12;101431.19;2070269;28;1649;-63
2024/02/17 00:40:11;;;;;;;;;;;;;;;19.10;52.07;101439.16;2069531;28;2064;-63
2024/02/17 00:41:13;;;;;;;;;;;;;;;19.10;52.11;101444.16;2069611;28;2049;-63
2024/02/17 00:42:14;;;;;;;;;;;;;;;19.10;52.08;101450.66;2069338;28;2104;-63
2024/02/17 00:43:16;;;;;;;;;;;;;;;19.10;52.01;101455.66;2068808;28;2137;-63
2024/02/17 00:44:17;;;;;;;;;;;;;;;19.09;51.97;101451.28;2068847;28;2117;-63
2024/02/17 00:45:18;;;;;;;;;;;;;;;19.09;51.99;101454.91;2068416;28;2220;-63
2024/02/17 00:46:20;;;;;;;;;;;;;;;19.10;51.97;101461.41;2070176;28;1616;-63
2024/02/17 00:47:22;;;;;;;;;;;;;;;19.10;51.96;101458.53;2070172;28;1781;-63
2024/02/17 00:48:25;;;;;;;;;;;;;;;19.09;52.00;101463.53;2071764;28;1633;-63
2024/02/17 00:49:26;;;;;;;;;;;;;;;19.09;52.17;101466.38;2071145;28;1589;-63
2024/02/17 00:50:28;;;;;;;;;;;;;;;19.08;52.05;101459.16;2071650;28;1995;-63
2024/02/17 00:51:31;;;;;;;;;;;;;;;19.09;52.09;101459.91;2068809;28;2188;-63
2024/02/17 00:52:32;;;;;;;;;;;;;;;19.06;51.80;101461.91;2067968;28;2151;-63
2024/02/17 00:53:34;;;;;;;;;;;;;;;19.07;51.84;101460.53;2069867;28;2112;-63
2024/02/17 00:54:35;;;;;;;;;;;;;;;19.09;51.95;101477.13;2071298;28;1914;-63
2024/02/17 00:55:37;;;;;;;;;;;;;;;19.07;51.89;101457.66;2069905;28;2176;-63
2024/02/17 00:56:38;;;;;;;;;;;;;;;19.07;52.01;101457.66;2070813;28;1977;-63
2024/02/17 00:57:40;;;;;;;;;;;;;;;19.08;52.01;101464.91;2068949;28;1895;-63
2024/02/17 00:58:41;;;;;;;;;;;;;;;19.07;51.95;101466.25;2068190;28;1902;-62
2024/02/17 00:59:43;;;;;;;;;;;;;;;19.07;51.97;101469.13;2066698;28;2066;-63
2024/02/17 01:00:44;;;;;;;;;;;;;;;19.08;51.92;101470.66;2068381;28;6159;-63
2024/02/17 01:01:45;;;;;;;;;;;;;;;19.08;51.94;101469.88;2065999;28;2123;-63
2024/02/17 01:02:50;;;;;;;;;;;;;;;19.08;51.89;101475.63;2069634;28;2093;-63
2024/02/17 01:03:51;;;;;;;;;;;;;;;19.07;51.95;101480.63;2067285;28;2082;-63
2024/02/17 01:04:53;;;;;;;;;;;;;;;19.07;51.92;101479.88;2069926;28;1628;-63
2024/02/17 01:05:55;;;;;;;;;;;;;;;19.05;51.87;101477.63;2068547;28;1879;-63
2024/02/17 01:06:56;;;;;;;;;;;;;;;19.07;51.93;101479.88;2069900;28;1855;-63
2024/02/17 01:07:58;;;;;;;;;;;;;;;19.07;51.87;101485.63;2071532;28;2038;-63
2024/02/17 01:08:59;;;;;;;;;;;;;;;19.06;51.87;101482.00;2072089;28;2078;-63
2024/02/17 01:10:00;;;;;;;;;;;;;;;19.07;51.86;101480.63;2072076;28;1684;-63
2024/02/17 01:11:02;;;;;;;;;;;;;;;19.07;51.92;101485.63;2069323;28;2205;-62
2024/02/17 01:12:03;;;;;;;;;;;;;;;19.05;51.98;101483.34;2070118;28;2066;-63
2024/02/17 01:13:05;;;;;;;;;;;;;;;19.07;51.83;101488.47;2069893;28;2053;-63
2024/02/17 01:14:07;;;;;;;;;;;;;;;19.06;51.90;101490.63;2067670;28;2120;-63
2024/02/17 01:15:09;;;;;;;;;;;;;;;19.05;51.82;101486.22;2068661;28;2283;-63
2024/02/17 01:16:10;;;;;;;;;;;;;;;19.04;51.90;101488.34;2071032;28;2243;-63
2024/02/17 01:17:12;;;;;;;;;;;;;;;19.04;52.05;101496.97;2069748;28;1854;-63
2024/02/17 01:18:13;;;;;;;;;;;;;;;19.05;51.91;101489.09;2069406;28;1696;-63
2024/02/17 01:19:15;;;;;;;;;;;;;;;19.04;51.85;101491.22;2071350;28;1628;-64
2024/02/17 01:20:16;;;;;;;;;;;;;;;19.04;51.71;101488.34;2071292;28;2160;-63
2024/02/17 01:21:18;;;;;;;;;;;;;;;19.04;51.92;101493.34;2068765;28;2141;-63
2024/02/17 01:22:19;;;;;;;;;;;;;;;19.03;51.80;101488.97;2068125;28;2069;-63
2024/02/17 01:23:21;;;;;;;;;;;;;;;19.05;51.74;101494.84;2067519;28;2143;-63
2024/02/17 01:24:22;;;;;;;;;;;;;;;19.04;51.89;101487.63;2071171;28;1719;-63
2024/02/17 01:25:24;;;;;;;;;;;;;;;19.03;51.79;101486.09;2069403;28;2071;-63
2024/02/17 01:26:27;;;;;;;;;;;;;;;19.04;51.76;101487.63;2070178;28;2069;-63
2024/02/17 01:27:28;;;;;;;;;;;;;;;19.03;51.89;101492.63;2067660;28;2054;-63
2024/02/17 01:28:29;;;;;;;;;;;;;;;19.03;51.77;101491.84;2070564;28;1906;-63
2024/02/17 01:29:31;;;;;;;;;;;;;;;19.02;51.78;101491.09;2065509;28;1983;-63
2024/02/17 01:30:32;;;;;;;;;;;;;;;19.03;51.83;101491.84;2069628;28;6167;-63
2024/02/17 01:31:33;;;;;;;;;;;;;;;19.03;51.79;101486.88;2069748;28;2282;-63
2024/02/17 01:32:35;;;;;;;;;;;;;;;19.03;51.83;101486.09;2070538;28;1617;-63
2024/02/17 01:33:36;;;;;;;;;;;;;;;19.03;51.76;101498.34;2069091;28;1804;-63
2024/02/17 01:34:37;;;;;;;;;;;;;;;19.02;51.81;101493.97;2070837;28;1746;-63
2024/02/17 01:35:39;;;;;;;;;;;;;;;19.01;51.77;101489.63;2070382;28;1856;-63
2024/02/17 01:36:40;;;;;;;;;;;;;;;19.03;51.72;101489.75;2069580;28;2256;-63
2024/02/17 01:37:42;;;;;;;;;;;;;;;19.03;51.76;101491.84;2071761;28;1719;-63
2024/02/17 01:38:45;;;;;;;;;;;;;;;19.02;51.80;101491.09;2071767;28;1731;-63
2024/02/17 01:39:46;;;;;;;;;;;;;;;19.02;51.77;101490.34;2066684;28;1656;-63
2024/02/17 01:40:48;;;;;;;;;;;;;;;19.01;51.76;101495.34;2067983;28;2162;-63
2024/02/17 01:41:50;;;;;;;;;;;;;;;19.02;51.81;101490.34;2067667;28;2049;-63
2024/02/17 01:42:52;;;;;;;;;;;;;;;19.01;51.72;101488.84;2072038;28;1699;-63
2024/02/17 01:43:53;;;;;;;;;;;;;;;19.01;51.77;101489.63;2068186;28;1984;-64
2024/02/17 01:44:55;;;;;;;;;;;;;;;19.01;51.68;101495.34;2070027;28;1601;-63
2024/02/17 01:45:56;;;;;;;;;;;;;;;19.01;51.74;101488.84;2068802;28;2065;-63
2024/02/17 01:46:57;;;;;;;;;;;;;;;19.01;51.78;101495.34;2071623;28;1731;-63
2024/02/17 01:47:59;;;;;;;;;;;;;;;19.01;51.72;101489.63;2068749;28;1661;-63
2024/02/17 01:49:01;;;;;;;;;;;;;;;19.01;51.66;101488.84;2071523;28;1719;-64
2024/02/17 01:50:03;;;;;;;;;;;;;;;19.00;51.69;101487.34;2069168;28;2369;-63
2024/02/17 01:51:05;;;;;;;;;;;;;;;19.01;51.65;101494.59;2070477;28;2494;-63
2024/02/17 01:52:07;;;;;;;;;;;;;;;19.00;51.68;101490.22;2070531;28;2113;-63
2024/02/17 01:53:09;;;;;;;;;;;;;;;19.00;51.71;101487.34;2067723;28;2156;-63
2024/02/17 01:54:11;;;;;;;;;;;;;;;19.00;51.69;101484.50;2069693;28;1673;-63
2024/02/17 01:55:15;;;;;;;;;;;;;;;19.00;51.62;101498.84;2069628;28;2137;-63
2024/02/17 01:56:19;;;;;;;;;;;;;;;19.01;51.80;101497.44;2069889;28;2091;-63
2024/02/17 01:57:21;;;;;;;;;;;;;;;19.00;51.71;101487.34;2068825;28;2443;-63
2024/02/17 01:58:22;;;;;;;;;;;;;;;18.99;51.62;101489.47;2067424;28;1738;-63
2024/02/17 01:59:24;;;;;;;;;;;;;;;19.00;51.69;101487.34;2069642;28;1922;-63
2024/02/17 02:00:27;;;;;;;;;;;;;;;18.99;51.65;101492.34;2065021;28;6329;-63
2024/02/17 02:01:30;;;;;;;;;;;;;;;18.99;51.73;101485.88;2058370;28;2008;-63
2024/02/17 02:02:31;;;;;;;;;;;;;;;18.99;51.67;101494.47;2060760;28;2136;-63
2024/02/17 02:03:33;;;;;;;;;;;;;;;18.99;51.71;101491.63;2062303;28;2521;-63
2024/02/17 02:04:35;;;;;;;;;;;;;;;18.98;51.60;101490.09;2061267;28;2113;-63
2024/02/17 02:05:36;;;;;;;;;;;;;;;18.99;51.69;101491.63;2062932;28;1662;-63
2024/02/17 02:06:38;;;;;;;;;;;;;;;18.98;51.64;101492.97;2060298;28;1673;-63
2024/02/17 02:07:40;;;;;;;;;;;;;;;18.98;51.67;101490.84;2061752;28;2091;-63
2024/02/17 02:08:41;;;;;;;;;;;;;;;18.98;51.68;101495.84;2062598;28;2009;-63
2024/02/17 02:09:43;;;;;;;;;;;;;;;18.98;51.67;101496.59;2060544;28;2126;-63
2024/02/17 02:10:45;;;;;;;;;;;;;;;18.98;51.68;101495.84;2061288;28;2116;-63
2024/02/17 02:11:46;;;;;;;;;;;;;;;18.98;51.57;101492.97;2059835;28;2102;-63
2024/02/17 02:12:48;;;;;;;;;;;;;;;18.99;51.61;101503.09;2060886;28;1741;-63
2024/02/17 02:13:49;;;;;;;;;;;;;;;18.98;51.57;101495.84;2062180;28;2000;-63
2024/02/17 02:15:09;;;;;;;;;;;;;;;18.97;51.64;101494.34;2059795;28;2111;-63
2024/02/17 02:16:10;;;;;;;;;;;;;;;18.98;51.76;101496.59;2062120;28;1984;-63
2024/02/17 02:17:12;;;;;;;;;;;;;;;18.97;51.69;101500.09;2062776;28;1935;-63
2024/02/17 02:18:13;;;;;;;;;;;;;;;18.97;51.58;101502.97;2060483;28;2048;-63
2024/02/17 02:19:15;;;;;;;;;;;;;;;18.97;51.64;101497.22;2062760;28;2431;-63
2024/02/17 02:20:19;;;;;;;;;;;;;;;18.98;51.65;101501.59;2062127;28;1734;-63
2024/02/17 02:21:20;;;;;;;;;;;;;;;18.97;51.69;101500.09;2060692;28;2412;-63
2024/02/17 02:22:21;;;;;;;;;;;;;;;18.98;51.57;101501.59;2061298;28;2126;-63
2024/02/17 02:23:23;;;;;;;;;;;;;;;18.96;51.63;101502.19;2061248;28;2083;-63
2024/02/17 02:24:24;;;;;;;;;;;;;;;18.97;51.55;101497.22;2060551;28;2091;-63
2024/02/17 02:25:26;;;;;;;;;;;;;;;18.97;51.64;101500.09;2062835;28;2129;-63
2024/02/17 02:26:27;;;;;;;;;;;;;;;18.96;51.64;101499.31;2058190;28;2079;-63
2024/02/17 02:27:28;;;;;;;;;;;;;;;18.97;51.55;101511.56;2059241;28;2102;-63
2024/02/17 02:28:30;;;;;;;;;;;;;;;18.96;51.60;101510.06;2061909;28;1806;-63
2024/02/17 02:29:32;;;;;;;;;;;;;;;18.95;51.58;101503.56;2057301;28;2102;-63
2024/02/17 02:30:33;;;;;;;;;;;;;;;18.96;51.64;101501.44;2059548;28;6203;-63
2024/02/17 02:31:34;;;;;;;;;;;;;;;18.96;51.53;101510.06;2057230;28;1509;-63
2024/02/17 02:32:36;;;;;;;;;;;;;;;18.96;51.61;101507.19;2063248;28;1612;-63
2024/02/17 02:33:37;;;;;;;;;;;;;;;18.96;51.58;101496.44;2061164;28;1676;-63
2024/02/17 02:34:39;;;;;;;;;;;;;;;18.96;51.61;101504.31;2061366;28;2279;-63
2024/02/17 02:35:41;;;;;;;;;;;;;;;18.96;51.52;101498.59;2060562;28;1627;-63
2024/02/17 02:36:42;;;;;;;;;;;;;;;18.95;51.63;101497.84;2062340;28;2192;-61
2024/02/17 02:37:43;;;;;;;;;;;;;;;18.95;51.64;101497.84;2057503;28;1930;-63
2024/02/17 02:38:45;;;;;;;;;;;;;;;18.95;51.55;101506.44;2062736;28;2282;-63
2024/02/17 02:39:46;;;;;;;;;;;;;;;18.96;51.62;101504.31;2063111;28;2306;-63
2024/02/17 02:40:48;;;;;;;;;;;;;;;18.95;51.61;101509.31;2061460;28;1896;-64
2024/02/17 02:41:49;;;;;;;;;;;;;;;18.95;51.55;101505.72;2061360;28;2057;-63
2024/02/17 02:42:50;;;;;;;;;;;;;;;18.95;51.49;101502.84;2059623;28;2194;-63
2024/02/17 02:43:52;;;;;;;;;;;;;;;18.95;51.50;101508.56;2061251;28;2090;-63
2024/02/17 02:44:53;;;;;;;;;;;;;;;18.94;51.52;101504.94;2061241;28;2170;-63
2024/02/17 02:45:55;;;;;;;;;;;;;;;18.95;51.58;101511.44;2061242;28;1928;-63
2024/02/17 02:46:56;;;;;;;;;;;;;;;18.94;51.58;101512.81;2059402;28;1713;-63
2024/02/17 02:47:58;;;;;;;;;;;;;;;18.95;51.54;101508.56;2058564;28;2142;-63
2024/02/17 02:48:59;;;;;;;;;;;;;;;18.94;51.50;101512.81;2061060;28;2056;-63
2024/02/17 02:50:01;;;;;;;;;;;;;;;18.94;51.42;101509.94;2062787;28;1856;-63
2024/02/17 02:51:02;;;;;;;;;;;;;;;18.94;51.54;101512.81;2063028;28;1848;-63
2024/02/17 02:52:04;;;;;;;;;;;;;;;18.94;51.55;101516.41;2058578;28;2040;-63
2024/02/17 02:53:06;;;;;;;;;;;;;;;18.94;51.55;101509.94;2062559;28;2565;-64
2024/02/17 02:54:08;;;;;;;;;;;;;;;18.95;51.37;101517.19;2059268;28;2431;-63
2024/02/17 02:55:09;;;;;;;;;;;;;;;18.93;51.54;101506.31;2061532;28;1649;-63
2024/02/17 02:56:11;;;;;;;;;;;;;;;18.93;51.58;101508.44;2059337;28;1873;-63
2024/02/17 02:57:12;;;;;;;;;;;;;;;18.92;51.40;101516.31;2060130;28;2139;-63
2024/02/17 02:58:13;;;;;;;;;;;;;;;18.93;51.47;101514.19;2058620;28;2340;-63
2024/02/17 02:59:15;;;;;;;;;;;;;;;18.93;51.61;101508.44;2061164;28;2538;-63
2024/02/17 03:00:16;;;;;;;;;;;;;;;18.93;51.48;101517.81;2062758;28;6297;-64
2024/02/17 03:01:18;;;;;;;;;;;;;;;18.92;51.42;101509.81;2069108;28;1930;-63
2024/02/17 03:02:19;;;;;;;;;;;;;;;18.92;51.42;101518.41;2068688;28;2200;-64
2024/02/17 03:03:21;;;;;;;;;;;;;;;18.92;51.46;101515.53;2068640;28;2007;-63
2024/02/17 03:04:22;;;;;;;;;;;;;;;18.91;51.48;101511.19;2065877;28;2241;-63
2024/02/17 03:05:24;;;;;;;;;;;;;;;18.92;51.46;101509.81;2068511;28;2062;-63
2024/02/17 03:06:25;;;;;;;;;;;;;;;18.92;51.51;101512.66;2067567;28;1681;-63
2024/02/17 03:07:28;;;;;;;;;;;;;;;18.92;51.48;101509.81;2066006;28;2070;-64
2024/02/17 03:08:29;;;;;;;;;;;;;;;18.92;51.48;101515.53;2070575;28;2113;-63
2024/02/17 03:09:30;;;;;;;;;;;;;;;18.91;51.41;101514.78;2070418;28;1768;-63
2024/02/17 03:10:32;;;;;;;;;;;;;;;18.91;51.50;101519.78;2068083;28;2034;-64
2024/02/17 03:11:33;;;;;;;;;;;;;;;18.91;51.51;101514.06;2071646;28;2270;-63
2024/02/17 03:12:35;;;;;;;;;;;;;;;18.90;51.58;101512.53;2071425;28;1863;-63
2024/02/17 03:13:37;;;;;;;;;;;;;;;18.90;51.45;101519.06;2069535;28;2063;-63
2024/02/17 03:14:42;;;;;;;;;;;;;;;18.91;51.44;101522.66;2069260;28;2195;-63
2024/02/17 03:15:43;;;;;;;;;;;;;;;18.91;51.48;101519.78;2070178;28;2121;-63
2024/02/17 03:16:45;;;;;;;;;;;;;;;18.91;51.39;101528.41;2070459;28;2198;-63
2024/02/17 03:17:47;;;;;;;;;;;;;;;18.90;51.44;101535.50;2070468;28;2145;-63
2024/02/17 03:18:48;;;;;;;;;;;;;;;18.90;51.49;101529.75;2068989;28;2021;-63
2024/02/17 03:19:51;;;;;;;;;;;;;;;18.89;51.46;101531.16;2072030;28;2161;-63
2024/02/17 03:20:53;;;;;;;;;;;;;;;18.90;51.54;101526.88;2070319;28;2076;-63
2024/02/17 03:21:55;;;;;;;;;;;;;;;18.89;51.40;101526.16;2071583;28;2158;-63
2024/02/17 03:22:56;;;;;;;;;;;;;;;18.89;51.40;101539.75;2069873;28;2081;-63
2024/02/17 03:23:57;;;;;;;;;;;;;;;18.89;51.51;101534.00;2071606;28;2066;-63
2024/02/17 03:24:59;;;;;;;;;;;;;;;18.90;51.42;101536.28;2066612;28;2195;-63
2024/02/17 03:26:00;;;;;;;;;;;;;;;18.90;51.45;101535.50;2070393;28;1851;-63
2024/02/17 03:27:01;;;;;;;;;;;;;;;18.88;51.44;101533.28;2067441;28;1875;-62
2024/02/17 03:28:03;;;;;;;;;;;;;;;18.88;51.50;101536.13;2071250;28;1693;-63
2024/02/17 03:29:05;;;;;;;;;;;;;;;18.88;51.48;101533.28;2069489;28;2101;-63
2024/02/17 03:30:07;;;;;;;;;;;;;;;18.88;51.59;101544.00;2067742;28;6096;-63
2024/02/17 03:31:09;;;;;;;;;;;;;;;18.88;51.49;101538.28;2068655;28;2059;-63
2024/02/17 03:32:10;;;;;;;;;;;;;;;18.87;51.45;101537.50;2067467;28;2145;-63
2024/02/17 03:33:11;;;;;;;;;;;;;;;18.88;51.48;101546.88;2069223;28;1589;-63
2024/02/17 03:34:13;;;;;;;;;;;;;;;18.88;51.46;101544.00;2070029;28;2062;-63
2024/02/17 03:35:15;;;;;;;;;;;;;;;18.88;51.49;101549.75;2068510;28;2095;-63
2024/02/17 03:36:17;;;;;;;;;;;;;;;18.87;51.45;101543.22;2070150;28;2270;-63
2024/02/17 03:37:19;;;;;;;;;;;;;;;18.88;51.43;101544.00;2069886;28;2218;-63
2024/02/17 03:38:20;;;;;;;;;;;;;;;18.88;51.44;101544.00;2071651;28;2275;-63
2024/02/17 03:39:22;;;;;;;;;;;;;;;18.89;51.44;101551.22;2070448;28;1620;-63
2024/02/17 03:40:24;;;;;;;;;;;;;;;18.89;51.34;101545.50;2069576;28;2102;-63
2024/02/17 03:41:26;;;;;;;;;;;;;;;18.90;51.50;101558.47;2069319;28;2092;-63
2024/02/17 03:42:27;;;;;;;;;;;;;;;18.90;51.35;101549.84;2071841;28;1592;-63
2024/02/17 03:43:29;;;;;;;;;;;;;;;18.91;51.39;101551.38;2070983;28;1756;-63
2024/02/17 03:44:30;;;;;;;;;;;;;;;18.91;51.30;101557.09;2068200;28;1949;-63
2024/02/17 03:45:32;;;;;;;;;;;;;;;18.91;51.26;101557.09;2070120;28;2323;-63
2024/02/17 03:46:33;;;;;;;;;;;;;;;18.92;51.35;101561.47;2071308;28;2064;-63
2024/02/17 03:47:34;;;;;;;;;;;;;;;18.93;51.47;101562.97;2071005;28;2408;-63
2024/02/17 03:48:36;;;;;;;;;;;;;;;18.92;51.27;101556.50;2069766;28;2542;-63
2024/02/17 03:49:38;;;;;;;;;;;;;;;18.92;51.18;101565.09;2069739;28;2080;-64
2024/02/17 03:50:39;;;;;;;;;;;;;;;18.94;51.13;101564.47;2071227;28;2110;-63
2024/02/17 03:51:41;;;;;;;;;;;;;;;18.94;51.25;101564.47;2072026;28;1660;-63
2024/02/17 03:52:42;;;;;;;;;;;;;;;18.94;51.24;101570.19;2069257;28;2177;-63
2024/02/17 03:53:44;;;;;;;;;;;;;;;18.94;51.22;101565.22;2070376;28;1989;-63
2024/02/17 03:54:45;;;;;;;;;;;;;;;18.95;51.14;101578.19;2068927;28;2485;-63
2024/02/17 03:55:46;;;;;;;;;;;;;;;18.95;51.25;101574.59;2069165;28;2413;-63
2024/02/17 03:56:49;;;;;;;;;;;;;;;18.96;51.13;101579.69;2070554;28;1745;-64
2024/02/17 03:57:50;;;;;;;;;;;;;;;18.96;51.00;101570.34;2070610;28;1919;-63
2024/02/17 03:58:52;;;;;;;;;;;;;;;18.96;51.11;101568.22;2068555;28;2055;-63
2024/02/17 03:59:54;;;;;;;;;;;;;;;18.96;51.02;101578.94;2071876;28;2361;-63
2024/02/17 04:00:55;;;;;;;;;;;;;;;18.97;51.07;101568.97;2070514;28;6070;-64
2024/02/17 04:01:59;;;;;;;;;;;;;;;18.97;51.11;101580.47;2071102;28;2051;-63
2024/02/17 04:03:01;;;;;;;;;;;;;;;18.97;51.12;101577.59;2072515;28;2125;-63
2024/02/17 04:04:05;;;;;;;;;;;;;;;18.97;51.11;101572.59;2069294;28;2141;-63
2024/02/17 04:05:11;;;;;;;;;;;;;;;18.97;51.04;101580.47;2060584;28;2711;-63
2024/02/17 04:06:13;;;;;;;;;;;;;;;18.98;51.07;101576.22;2070759;28;2104;-64
2024/02/17 04:07:14;;;;;;;;;;;;;;;18.98;51.07;101576.22;2070165;28;1970;-63
2024/02/17 04:08:16;;;;;;;;;;;;;;;18.97;51.12;101568.97;2070265;28;1581;-63
2024/02/17 04:09:17;;;;;;;;;;;;;;;18.98;51.16;101571.22;2067357;28;2206;-64
2024/02/17 04:10:19;;;;;;;;;;;;;;;18.98;51.09;101576.94;2068374;28;2078;-63
2024/02/17 04:11:20;;;;;;;;;;;;;;;18.99;51.15;101580.59;2070093;28;2168;-63
2024/02/17 04:12:22;;;;;;;;;;;;;;;18.99;51.15;101577.72;2069043;28;2125;-63
2024/02/17 04:13:26;;;;;;;;;;;;;;;18.97;51.16;101586.94;2069624;28;2081;-63
2024/02/17 04:14:27;;;;;;;;;;;;;;;18.99;51.26;101589.19;2069731;28;2150;-63
2024/02/17 04:15:29;;;;;;;;;;;;;;;18.97;51.23;101586.94;2070044;28;2055;-63
2024/02/17 04:16:30;;;;;;;;;;;;;;;18.98;51.19;101593.44;2070835;28;1625;-63
2024/02/17 04:17:32;;;;;;;;;;;;;;;18.98;51.19;101594.16;2070400;28;1896;-63
2024/02/17 04:18:33;;;;;;;;;;;;;;;18.98;51.30;101593.44;2068901;28;2016;-63
2024/02/17 04:19:35;;;;;;;;;;;;;;;18.98;51.26;101604.91;2070324;28;2051;-63
2024/02/17 04:20:39;;;;;;;;;;;;;;;18.98;51.29;101599.16;2067049;28;1942;-63
2024/02/17 04:21:41;;;;;;;;;;;;;;;18.98;51.23;101604.91;2067685;28;1963;-63
2024/02/17 04:22:42;;;;;;;;;;;;;;;18.97;51.22;101603.41;2069645;28;1948;-63
2024/02/17 04:23:44;;;;;;;;;;;;;;;18.97;51.30;101603.41;2072095;28;1669;-63
2024/02/17 04:24:45;;;;;;;;;;;;;;;18.98;51.33;101599.16;2067590;28;2038;-63
2024/02/17 04:25:46;;;;;;;;;;;;;;;18.97;51.25;101598.44;2069748;28;2005;-63
2024/02/17 04:26:48;;;;;;;;;;;;;;;18.97;51.34;101614.91;2071580;28;1625;-63
2024/02/17 04:27:49;;;;;;;;;;;;;;;18.98;51.31;101599.16;2067485;28;1673;-63
2024/02/17 04:28:51;;;;;;;;;;;;;;;18.97;51.32;101600.56;2067178;28;2008;-64
2024/02/17 04:29:52;;;;;;;;;;;;;;;18.98;51.26;101602.03;2066764;28;1913;-64
2024/02/17 04:30:54;;;;;;;;;;;;;;;18.97;51.22;101609.16;2061148;28;6331;-63
2024/02/17 04:31:56;;;;;;;;;;;;;;;18.96;51.17;101610.50;2058844;28;2087;-63
2024/02/17 04:32:58;;;;;;;;;;;;;;;18.98;51.11;101613.53;2060851;28;2075;-64
2024/02/17 04:33:59;;;;;;;;;;;;;;;18.98;51.08;101599.16;2066044;28;2008;-64
2024/02/17 04:35:01;;;;;;;;;;;;;;;18.98;51.05;101613.53;2058066;28;2016;-63
2024/02/17 04:36:03;;;;;;;;;;;;;;;18.98;51.05;101616.38;2060628;28;2275;-63
2024/02/17 04:37:05;;;;;;;;;;;;;;;18.98;51.12;101614.25;2060524;28;2001;-63
2024/02/17 04:38:06;;;;;;;;;;;;;;;18.99;51.03;101618.66;2059279;28;2083;-64
2024/02/17 04:39:10;;;;;;;;;;;;;;;19.00;51.17;101619.38;2060674;28;2378;-64
2024/02/17 04:40:12;;;;;;;;;;;;;;;19.01;51.05;101620.88;2063796;28;2263;-63
2024/02/17 04:41:14;;;;;;;;;;;;;;;19.02;51.08;101619.53;2060168;28;1995;-63
2024/02/17 04:42:15;;;;;;;;;;;;;;;19.02;51.04;101622.41;2060563;28;1954;-63
2024/02/17 04:43:17;;;;;;;;;;;;;;;19.03;50.98;101621.00;2060791;28;2326;-63
2024/02/17 04:44:18;;;;;;;;;;;;;;;19.05;51.04;101626.88;2059339;28;2393;-63
2024/02/17 04:45:20;;;;;;;;;;;;;;;19.03;51.11;101615.28;2060755;28;1911;-63
2024/02/17 04:46:21;;;;;;;;;;;;;;;19.04;51.16;101634.00;2060812;28;2086;-63
2024/02/17 04:47:23;;;;;;;;;;;;;;;19.04;51.22;101631.13;2062124;28;1856;-63
2024/02/17 04:48:24;;;;;;;;;;;;;;;19.04;51.17;101631.88;2061183;28;2353;-64
2024/02/17 04:49:25;;;;;;;;;;;;;;;19.04;51.20;101634.75;2060436;28;2373;-63
2024/02/17 04:50:27;;;;;;;;;;;;;;;19.04;51.21;101634.75;2061224;28;2401;-63
2024/02/17 04:51:28;;;;;;;;;;;;;;;19.05;51.10;101635.50;2061341;28;1951;-63
2024/02/17 04:52:30;;;;;;;;;;;;;;;19.04;51.18;101643.38;2061988;28;1881;-63
2024/02/17 04:53:31;;;;;;;;;;;;;;;19.04;51.13;101642.63;2060435;28;2181;-63
2024/02/17 04:54:32;;;;;;;;;;;;;;;19.04;51.19;101642.63;2060738;28;2060;-63
2024/02/17 04:55:34;;;;;;;;;;;;;;;19.04;51.22;101634.75;2063352;28;1590;-64
2024/02/17 04:56:35;;;;;;;;;;;;;;;19.04;51.23;101646.25;2060507;28;2100;-64
2024/02/17 04:57:37;;;;;;;;;;;;;;;19.03;51.29;101641.88;2062814;28;1966;-63
2024/02/17 04:58:39;;;;;;;;;;;;;;;19.04;51.24;101642.63;2059466;28;2310;-63
2024/02/17 04:59:41;;;;;;;;;;;;;;;19.02;51.25;101656.84;2062003;28;2022;-61
2024/02/17 05:00:42;;;;;;;;;;;;;;;18.92;51.43;101651.19;2066215;28;6112;-60
2024/02/17 05:01:44;;;;;;;;;;;;;;;18.68;51.62;101644.56;2068302;28;1983;-65
2024/02/17 05:02:46;;;;;;;;;;;;;;;18.68;51.52;101647.44;2068497;28;2000;-62
2024/02/17 05:03:48;;;;;;;;;;;;;;;18.70;51.32;101650.47;2068595;28;2019;-66
2024/02/17 05:04:49;;;;;;;;;;;;;;;18.77;51.46;101649.50;2070263;28;1934;-69
2024/02/17 05:05:51;;;;;;;;;;;;;;;18.84;51.31;101644.91;2067513;28;2126;-68
2024/02/17 05:06:54;;;;;;;;;;;;;;;18.89;51.54;101648.81;2068733;28;2004;-68
2024/02/17 05:07:55;;;;;;;;;;;;;;;18.93;51.43;101640.47;2068485;28;2003;-67
2024/02/17 05:08:57;;;;;;;;;;;;;;;18.96;51.23;101648.56;2068695;28;1981;-66
2024/02/17 05:09:58;;;;;;;;;;;;;;;18.98;51.25;101650.84;2072054;28;1950;-67
2024/02/17 05:10:59;;;;;;;;;;;;;;;19.00;51.23;101643.09;2067607;28;1688;-68
2024/02/17 05:12:01;;;;;;;;;;;;;;;19.01;51.18;101652.44;2071619;28;1984;-67
2024/02/17 05:13:03;;;;;;;;;;;;;;;19.03;51.24;101655.47;2068012;28;1963;-66
2024/02/17 05:14:04;;;;;;;;;;;;;;;19.04;51.13;101654.84;2071036;28;1622;-67
2024/02/17 05:15:06;;;;;;;;;;;;;;;19.06;51.10;101651.38;2065753;28;1944;-67
2024/02/17 05:16:08;;;;;;;;;;;;;;;19.07;51.16;101666.47;2067610;28;1833;-67
2024/02/17 05:17:09;;;;;;;;;;;;;;;19.07;51.19;101666.47;2070011;28;2317;-67
2024/02/17 05:18:10;;;;;;;;;;;;;;;19.07;51.12;101664.34;2071523;28;1649;-67
2024/02/17 05:19:13;;;;;;;;;;;;;;;19.08;51.19;101665.09;2067109;28;2146;-67
2024/02/17 05:20:14;;;;;;;;;;;;;;;19.08;51.19;101671.59;2069528;28;1984;-67
2024/02/17 05:21:16;;;;;;;;;;;;;;;19.08;51.05;101665.09;2068884;28;1957;-68